Time;durP1;ratioP1;P1;durP2;ratioP2;P2;SDS_P1;SDS_P2;PMS_P1;PMS_P2;Temp;Humidity;BMP_temperature;BMP_pressure;BME280_temperature;BME280_humidity;BME280_pressure;Samples;Min_cycle;Max_cycle;Signal;HPM_P1;HPM_P2
2022/08/25 00:01:13;;;;;;;3.47;2.30;;;;;;;25.15;52.50;100231.50;5010184;28;20482;-69
2022/08/25 00:03:40;;;;;;;4.77;2.70;;;;;;;25.16;52.74;100230.25;4998435;28;20430;-71
2022/08/25 00:06:06;;;;;;;4.27;2.80;;;;;;;25.14;52.31;100231.94;4997673;28;20513;-69
2022/08/25 00:08:33;;;;;;;4.00;2.50;;;;;;;25.11;52.83;100233.59;4996374;28;20513;-69
2022/08/25 00:11:00;;;;;;;5.03;2.37;;;;;;;25.10;52.41;100240.66;5012897;28;20577;-72
2022/08/25 00:13:26;;;;;;;4.63;3.00;;;;;;;25.09;52.49;100241.06;5012649;28;20411;-70
2022/08/25 00:15:52;;;;;;;4.17;2.77;;;;;;;25.07;52.91;100234.88;5016883;28;20419;-68
2022/08/25 00:18:18;;;;;;;5.47;2.80;;;;;;;25.07;52.69;100244.38;5013069;28;20543;-68
2022/08/25 00:20:43;;;;;;;5.13;2.50;;;;;;;25.02;52.63;100239.06;4979130;28;20695;-71
2022/08/25 00:23:08;;;;;;;4.43;2.70;;;;;;;25.03;52.56;100237.81;4995028;28;20197;-71
2022/08/25 00:25:34;;;;;;;3.40;2.20;;;;;;;25.01;52.62;100231.63;4998311;28;20185;-68
2022/08/25 00:27:59;;;;;;;4.87;2.70;;;;;;;25.01;52.44;100234.53;4995548;28;20176;-69
2022/08/25 00:30:25;;;;;;;2.87;2.20;;;;;;;25.03;52.69;100228.34;5011022;28;20227;-70
2022/08/25 00:32:50;;;;;;;5.03;2.80;;;;;;;25.03;52.44;100232.03;4994614;28;20177;-69
2022/08/25 00:35:16;;;;;;;3.70;2.43;;;;;;;25.06;52.43;100230.34;4994490;28;20177;-70
2022/08/25 00:37:41;;;;;;;8.60;2.60;;;;;;;25.08;51.92;100231.56;4995259;28;20154;-70
2022/08/25 00:40:07;;;;;;;3.20;2.10;;;;;;;25.10;52.59;100236.91;5010527;28;20188;-68
2022/08/25 00:42:33;;;;;;;7.87;2.80;;;;;;;25.10;52.62;100231.97;5011063;28;20209;-71
2022/08/25 00:44:58;;;;;;;4.50;2.90;;;;;;;25.08;52.05;100230.75;5012379;28;20426;-71
2022/08/25 00:47:24;;;;;;;3.43;2.60;;;;;;;25.07;51.96;100235.69;4991519;28;20225;-69
2022/08/25 00:49:56;;;;;;;3.90;2.50;;;;;;;25.08;52.19;100234.44;4990631;28;20798;-68
2022/08/25 00:52:46;;;;;;;5.03;2.90;;;;;;;25.08;52.06;100243.13;4993043;28;20681;-71
2022/08/25 00:55:24;;;;;;;5.07;2.60;;;;;;;25.10;52.15;100248.47;4984030;28;20817;-71
2022/08/25 00:58:18;;;;;;;4.47;2.57;;;;;;;25.11;51.95;100247.22;5009481;28;20913;-68
2022/08/25 01:00:46;;;;;;;5.20;2.87;;;;;;;25.10;51.80;100237.75;4965382;28;20541;-68
2022/08/25 01:03:11;;;;;;;4.33;2.63;;;;;;;25.10;52.20;100237.75;4978381;28;20419;-70
2022/08/25 01:05:37;;;;;;;3.57;2.70;;;;;;;25.11;52.03;100244.34;4995587;28;20420;-70
2022/08/25 01:08:03;;;;;;;3.17;2.60;;;;;;;25.11;52.18;100245.16;4993419;28;20581;-70
2022/08/25 01:10:29;;;;;;;3.90;2.63;;;;;;;25.10;52.18;100243.53;4993002;28;20256;-68
2022/08/25 01:12:57;;;;;;;5.20;2.93;;;;;;;25.09;52.13;100241.88;4976291;28;20867;-71
2022/08/25 01:15:23;;;;;;;2.93;2.33;;;;;;;25.08;51.87;100246.00;4979763;28;20176;-68
2022/08/25 01:17:53;;;;;;;3.70;3.00;;;;;;;25.10;51.67;100245.59;4992889;28;20519;-69
2022/08/25 01:20:20;;;;;;;3.43;2.50;;;;;;;25.08;52.64;100250.97;4994606;28;20172;-68
2022/08/25 01:22:46;;;;;;;3.27;2.37;;;;;;;25.08;51.92;100248.09;4994296;28;20878;-69
2022/08/25 01:25:49;;;;;;;4.33;2.50;;;;;;;25.07;52.33;100247.25;5010243;28;20424;-68
2022/08/25 01:28:15;;;;;;;3.80;2.87;;;;;;;25.06;51.74;100251.41;5011216;28;20227;-68
2022/08/25 01:30:41;;;;;;;4.20;2.77;;;;;;;25.05;52.07;100252.66;5009431;28;20420;-71
2022/08/25 01:33:07;;;;;;;5.27;3.13;;;;;;;25.03;52.03;100245.66;5010424;28;20268;-69
2022/08/25 01:35:33;;;;;;;4.90;2.97;;;;;;;25.00;52.23;100241.56;4993767;28;20184;-68
2022/08/25 01:37:59;;;;;;;4.10;3.13;;;;;;;25.02;52.01;100247.72;4994218;28;20506;-68
2022/08/25 01:40:25;;;;;;;3.87;3.10;;;;;;;25.02;52.48;100241.09;4993736;28;20216;-68
2022/08/25 01:43:06;;;;;;;3.73;2.43;;;;;;;25.02;52.00;100246.88;4994647;28;20456;-71
2022/08/25 01:45:34;;;;;;;4.40;2.80;;;;;;;25.01;51.73;100248.13;5010895;28;20181;-70
2022/08/25 01:48:00;;;;;;;6.67;2.63;;;;;;;25.01;52.31;100248.13;5011857;28;20515;-68
2022/08/25 01:50:26;;;;;;;4.43;2.57;;;;;;;24.99;52.00;100263.00;5009439;28;20481;-70
2022/08/25 01:53:18;;;;;;;4.67;2.90;;;;;;;25.01;52.17;100265.47;4990543;28;20295;-68
2022/08/25 01:55:54;;;;;;;5.60;3.07;;;;;;;24.98;52.28;100264.25;5005710;28;20200;-68
2022/08/25 01:58:29;;;;;;;5.63;2.50;;;;;;;24.99;52.24;100251.44;4989986;28;20520;-68
2022/08/25 02:00:56;;;;;;;4.77;2.60;;;;;;;25.00;52.03;100250.22;5007500;28;20456;-68
2022/08/25 02:03:23;;;;;;;5.90;3.17;;;;;;;25.02;52.05;100259.28;5006882;28;20480;-71
2022/08/25 02:05:48;;;;;;;7.17;2.87;;;;;;;25.02;51.78;100256.38;5006791;28;20452;-70
2022/08/25 02:08:14;;;;;;;3.23;2.40;;;;;;;25.01;52.09;100251.03;4990560;28;20429;-68
2022/08/25 02:10:39;;;;;;;5.07;2.80;;;;;;;25.01;52.28;100251.88;4973347;28;20165;-68
2022/08/25 02:13:05;;;;;;;6.30;3.20;;;;;;;25.00;51.79;100253.13;4991617;28;20174;-71
2022/08/25 02:15:31;;;;;;;7.30;2.90;;;;;;;25.00;52.09;100250.22;4981391;28;20596;-68
2022/08/25 02:17:56;;;;;;;7.47;3.20;;;;;;;24.95;52.49;100259.34;4988825;28;20169;-71
2022/08/25 02:20:22;;;;;;;6.50;3.23;;;;;;;24.94;52.10;100251.91;4989958;28;20519;-68
2022/08/25 02:22:51;;;;;;;4.63;2.80;;;;;;;24.97;52.34;100248.19;4973162;28;20186;-72
2022/08/25 02:25:18;;;;;;;5.90;3.13;;;;;;;24.96;52.23;100242.81;4973526;28;20467;-68
2022/08/25 02:27:44;;;;;;;3.83;2.53;;;;;;;24.98;52.17;100246.94;4988190;28;20425;-68
2022/08/25 02:30:12;;;;;;;4.63;3.43;;;;;;;24.98;52.28;100241.16;4970176;28;20427;-70
2022/08/25 02:32:38;;;;;;;4.33;2.60;;;;;;;24.99;52.39;100239.91;4970570;28;20433;-73
2022/08/25 02:35:05;;;;;;;6.87;3.30;;;;;;;24.98;52.46;100238.25;4971085;28;20432;-71
2022/08/25 02:37:30;;;;;;;4.33;2.73;;;;;;;24.99;52.21;100236.19;4971116;28;20182;-68
2022/08/25 02:39:56;;;;;;;5.70;3.03;;;;;;;24.98;52.10;100241.16;4986629;28;20512;-70
2022/08/25 02:42:21;;;;;;;3.80;2.83;;;;;;;24.97;52.32;100245.28;4986360;28;20268;-70
2022/08/25 02:44:46;;;;;;;5.10;2.77;;;;;;;24.99;52.23;100242.78;4972754;28;20680;-71
2022/08/25 02:47:12;;;;;;;4.40;2.90;;;;;;;24.98;52.34;100238.25;4987043;28;20181;-68
2022/08/25 02:49:37;;;;;;;4.03;2.60;;;;;;;24.99;52.23;100239.91;4975033;28;20188;-68
2022/08/25 02:52:04;;;;;;;5.03;2.53;;;;;;;24.97;52.23;100233.75;5008854;28;20196;-68
2022/08/25 02:54:29;;;;;;;5.93;3.80;;;;;;;24.97;52.40;100232.91;4996223;28;20179;-68
2022/08/25 02:56:54;;;;;;;3.60;2.67;;;;;;;24.95;52.40;100227.56;5012096;28;20791;-69
2022/08/25 02:59:20;;;;;;;4.60;3.43;;;;;;;24.95;52.64;100233.34;5012071;28;20172;-70
2022/08/25 03:01:45;;;;;;;4.37;2.53;;;;;;;24.94;52.44;100234.56;5030352;28;20203;-70
2022/08/25 03:04:11;;;;;;;4.40;3.17;;;;;;;24.95;52.44;100230.47;4996097;28;20180;-71
2022/08/25 03:06:36;;;;;;;4.77;2.50;;;;;;;24.94;52.29;100242.44;4995776;28;20168;-68
2022/08/25 03:09:03;;;;;;;5.00;2.93;;;;;;;24.91;52.65;100238.34;4982422;28;20193;-68
2022/08/25 03:11:28;;;;;;;6.83;3.10;;;;;;;24.89;52.50;100237.91;4988816;28;20182;-69
2022/08/25 03:13:55;;;;;;;5.83;3.20;;;;;;;24.88;52.31;100242.06;4973333;28;20510;-68
2022/08/25 03:16:20;;;;;;;4.07;2.80;;;;;;;24.89;52.58;100240.81;4991950;28;20176;-69
2022/08/25 03:18:46;;;;;;;4.10;2.73;;;;;;;24.90;52.49;100239.59;5010838;28;20438;-71
2022/08/25 03:21:12;;;;;;;3.67;2.73;;;;;;;24.91;52.65;100229.66;4994916;28;20203;-70
2022/08/25 03:23:38;;;;;;;4.17;2.63;;;;;;;24.92;52.61;100218.91;5012243;28;20254;-71
2022/08/25 03:28:48;;;;;;;5.17;2.90;;;;;;;24.91;52.19;100217.28;5030455;28;20407;-68
2022/08/25 03:31:13;;;;;;;5.60;3.10;;;;;;;24.91;52.19;100223.88;5027890;28;20416;-68
2022/08/25 03:33:39;;;;;;;4.37;3.13;;;;;;;24.92;52.39;100224.69;5027875;28;20224;-70
2022/08/25 03:36:05;;;;;;;3.87;2.50;;;;;;;24.91;52.32;100221.00;5029482;28;20175;-71
2022/08/25 03:38:30;;;;;;;3.40;2.60;;;;;;;24.92;52.47;100219.75;4999135;28;20180;-70
2022/08/25 03:40:56;;;;;;;4.70;3.57;;;;;;;24.91;52.45;100215.22;4998272;28;20466;-69
2022/08/25 03:43:21;;;;;;;4.47;2.73;;;;;;;24.90;52.46;100221.44;4999142;28;20246;-68
2022/08/25 03:45:47;;;;;;;4.90;3.27;;;;;;;24.87;52.51;100225.16;5001974;28;20189;-68
2022/08/25 03:48:13;;;;;;;4.37;3.03;;;;;;;24.85;52.42;100227.66;5011931;28;20173;-68
2022/08/25 03:50:43;;;;;;;4.00;2.93;;;;;;;24.84;52.65;100240.47;5011004;28;20173;-69
2022/08/25 03:53:09;;;;;;;4.10;3.07;;;;;;;24.83;51.90;100235.94;5011539;28;20240;-71
2022/08/25 03:55:34;;;;;;;5.80;3.20;;;;;;;24.82;52.57;100240.06;5009958;28;20420;-68
2022/08/25 03:58:00;;;;;;;7.57;3.07;;;;;;;24.84;52.53;100235.50;5024269;28;20620;-70
2022/08/25 04:00:25;;;;;;;3.13;2.70;;;;;;;24.87;52.66;100242.47;4993507;28;20190;-68
2022/08/25 04:02:50;;;;;;;4.10;2.87;;;;;;;24.87;52.32;100231.75;5026427;28;20579;-70
2022/08/25 04:05:16;;;;;;;4.63;3.03;;;;;;;24.87;52.35;100233.81;5010898;28;20223;-70
2022/08/25 04:07:41;;;;;;;4.13;2.77;;;;;;;24.85;52.49;100227.66;4993509;28;20181;-70
2022/08/25 04:10:08;;;;;;;5.37;3.13;;;;;;;24.86;52.44;100229.28;4993735;28;20181;-71
2022/08/25 04:12:34;;;;;;;4.47;3.03;;;;;;;24.85;52.67;100231.38;5010023;28;20169;-68
2022/08/25 04:15:00;;;;;;;6.80;3.20;;;;;;;24.85;52.59;100230.53;4993948;28;20428;-71
2022/08/25 04:17:25;;;;;;;5.87;3.10;;;;;;;24.84;52.32;100234.69;4994390;28;20674;-71
2022/08/25 04:19:51;;;;;;;4.50;3.10;;;;;;;24.79;52.77;100235.16;4995279;28;20177;-70
2022/08/25 04:22:16;;;;;;;5.03;3.10;;;;;;;24.78;52.68;100231.41;4999430;28;20655;-71
2022/08/25 04:24:42;;;;;;;5.83;3.37;;;;;;;24.80;52.44;100233.88;5015163;28;20176;-68
2022/08/25 04:27:07;;;;;;;7.13;3.20;;;;;;;24.80;52.39;100234.72;5014909;28;20578;-68
2022/08/25 04:29:32;;;;;;;3.17;2.70;;;;;;;24.78;52.77;100225.66;5015602;28;20219;-68
2022/08/25 04:31:58;;;;;;;5.77;2.83;;;;;;;24.78;52.60;100225.66;4997340;28;20176;-71
2022/08/25 04:34:24;;;;;;;4.43;3.03;;;;;;;24.79;52.55;100226.47;5013843;28;20177;-68
2022/08/25 04:36:50;;;;;;;3.60;2.90;;;;;;;24.78;52.35;100224.84;4977695;28;20182;-68
2022/08/25 04:39:16;;;;;;;5.90;3.20;;;;;;;24.79;52.49;100223.59;4993102;28;20938;-68
2022/08/25 04:41:42;;;;;;;6.20;3.10;;;;;;;24.80;52.79;100219.44;4992977;28;20181;-68
2022/08/25 04:44:07;;;;;;;3.07;2.43;;;;;;;24.78;52.70;100210.41;4977370;28;20498;-70
2022/08/25 04:46:33;;;;;;;4.67;3.53;;;;;;;24.79;52.65;100218.63;4977943;28;20177;-70
2022/08/25 04:49:00;;;;;;;7.57;3.23;;;;;;;24.78;52.32;100219.88;5009381;28;20247;-71
2022/08/25 04:51:28;;;;;;;4.17;2.67;;;;;;;24.79;52.58;100227.28;4995930;28;20597;-68
2022/08/25 04:53:53;;;;;;;4.83;3.17;;;;;;;24.76;52.46;100225.25;4977598;28;20468;-68
2022/08/25 04:56:20;;;;;;;7.27;2.80;;;;;;;24.75;52.28;100226.50;4993503;28;20499;-68
2022/08/25 04:58:46;;;;;;;6.17;3.00;;;;;;;24.73;52.82;100234.75;4978440;28;20188;-72
2022/08/25 05:01:16;;;;;;;5.30;3.30;;;;;;;24.73;52.62;100240.53;4977720;28;20551;-68
2022/08/25 05:03:41;;;;;;;3.87;2.97;;;;;;;24.77;52.76;100226.06;4994440;28;20184;-68
2022/08/25 05:06:07;;;;;;;6.90;3.33;;;;;;;24.77;52.71;100223.19;4978573;28;20786;-71
2022/08/25 05:08:32;;;;;;;5.57;2.80;;;;;;;24.75;52.62;100220.75;4978773;28;20169;-70
2022/08/25 05:10:58;;;;;;;3.87;3.10;;;;;;;24.77;52.54;100224.00;4993820;28;20173;-70
2022/08/25 05:13:24;;;;;;;4.80;2.57;;;;;;;24.77;52.32;100221.13;4994840;28;20160;-68
2022/08/25 05:15:54;;;;;;;9.13;2.80;;;;;;;24.78;52.64;100227.72;4974953;28;20421;-71
2022/08/25 05:18:20;;;;;;;4.40;3.10;;;;;;;24.77;52.61;100229.78;4992903;28;20304;-68
2022/08/25 05:20:46;;;;;;;5.10;3.13;;;;;;;24.76;52.25;100228.16;4973991;28;20451;-68
2022/08/25 05:23:11;;;;;;;4.60;3.00;;;;;;;24.75;52.55;100226.50;5007174;28;20417;-70
2022/08/25 05:25:37;;;;;;;5.30;2.93;;;;;;;24.77;52.58;100217.41;5007739;28;20185;-68
2022/08/25 05:28:03;;;;;;;4.30;2.93;;;;;;;24.75;52.50;100214.97;4993656;28;20228;-70
2022/08/25 05:30:28;;;;;;;4.20;3.20;;;;;;;24.73;52.65;100220.31;5010366;28;20169;-68
2022/08/25 05:32:54;;;;;;;9.07;3.20;;;;;;;24.75;52.68;100211.25;4994038;28;20700;-71
2022/08/25 05:35:19;;;;;;;5.40;3.00;;;;;;;24.75;52.49;100212.06;5010183;28;20204;-71
2022/08/25 05:37:45;;;;;;;4.10;2.80;;;;;;;24.76;52.80;100212.88;4992992;28;20216;-71
2022/08/25 05:40:11;;;;;;;6.03;3.13;;;;;;;24.74;52.61;100210.41;5009064;28;20169;-68
2022/08/25 05:42:36;;;;;;;4.00;3.00;;;;;;;24.73;52.69;100211.66;4992378;28;20490;-73
2022/08/25 05:45:03;;;;;;;5.17;3.03;;;;;;;24.27;54.48;100211.16;4987419;28;20189;-70
2022/08/25 05:47:29;;;;;;;5.90;3.60;;;;;;;24.58;55.69;100226.63;4994959;28;20200;-68
2022/08/25 05:49:55;;;;;;;9.80;4.63;;;;;;;25.06;56.17;100216.72;4991532;28;20502;-70
2022/08/25 05:52:20;;;;;;;15.83;6.23;;;;;;;25.57;57.93;100205.06;4999678;28;20197;-70
2022/08/25 05:54:45;;;;;;;11.80;4.80;;;;;;;25.44;56.64;100201.06;4985572;28;20234;-69
2022/08/25 05:57:11;;;;;;;16.67;4.53;;;;;;;25.31;58.18;100202.88;4993847;28;20166;-68
2022/08/25 05:59:36;;;;;;;8.63;4.47;;;;;;;25.22;57.99;100196.75;4999487;28;20153;-69
2022/08/25 06:04:47;;;;;;;11.97;4.57;;;;;;;25.14;57.57;100200.16;4990800;28;20177;-69
2022/08/25 06:07:12;;;;;;;7.17;3.70;;;;;;;25.15;57.63;100202.63;4997531;28;20433;-69
2022/08/25 06:09:38;;;;;;;8.40;3.70;;;;;;;25.07;57.95;100198.16;5013703;28;20212;-69
2022/08/25 06:12:04;;;;;;;7.83;3.83;;;;;;;25.06;58.11;100198.56;4994766;28;20169;-70
2022/08/25 06:14:30;;;;;;;7.30;3.63;;;;;;;25.08;57.54;100198.97;4992532;28;20427;-71
2022/08/25 06:16:55;;;;;;;7.17;3.93;;;;;;;25.07;57.33;100203.91;4978744;28;20181;-70
2022/08/25 06:19:22;;;;;;;6.30;3.30;;;;;;;25.08;57.48;100194.00;4993725;28;20193;-71
2022/08/25 06:21:48;;;;;;;10.90;3.70;;;;;;;25.07;57.97;100188.66;4969778;28;20194;-70
2022/08/25 06:24:13;;;;;;;6.80;3.40;;;;;;;24.95;57.36;100180.53;4987715;28;20796;-71
2022/08/25 06:26:38;;;;;;;6.27;3.97;;;;;;;25.10;58.04;100176.25;4972334;28;20203;-69
2022/08/25 06:29:04;;;;;;;5.03;3.93;;;;;;;25.15;58.00;100173.72;4971671;28;20177;-68
2022/08/25 06:31:29;;;;;;;6.67;4.13;;;;;;;24.84;57.58;100183.50;4972160;28;20182;-71
2022/08/25 06:33:55;;;;;;;5.70;3.63;;;;;;;24.76;58.29;100170.41;4972108;28;20786;-69
2022/08/25 06:36:20;;;;;;;7.83;3.77;;;;;;;24.73;58.12;100177.00;4978188;28;20177;-70
2022/08/25 06:38:46;;;;;;;11.40;3.80;;;;;;;24.68;58.17;100171.69;4993612;28;20181;-71
2022/08/25 06:41:12;;;;;;;6.47;4.20;;;;;;;24.86;57.92;100169.47;5004566;28;20211;-69
2022/08/25 06:43:39;;;;;;;8.57;4.10;;;;;;;24.85;57.49;100167.84;5010633;28;20176;-69
2022/08/25 06:46:11;;;;;;;4.23;3.70;;;;;;;24.71;58.16;100172.91;4978826;28;20443;-72
2022/08/25 06:48:37;;;;;;;8.03;4.40;;;;;;;24.70;57.65;100160.56;4982688;28;21191;-72
2022/08/25 06:51:10;;;;;;;8.67;3.77;;;;;;;24.70;57.71;100163.44;4974705;28;20437;-71
2022/08/25 06:53:35;;;;;;;11.93;4.07;;;;;;;24.57;58.30;100156.50;4988849;28;20587;-68
2022/08/25 06:56:01;;;;;;;6.13;4.17;;;;;;;24.50;58.11;100162.34;4988088;28;20475;-69
2022/08/25 06:58:27;;;;;;;7.10;4.63;;;;;;;24.32;59.23;100160.81;4976855;28;20715;-68
2022/08/25 07:00:52;;;;;;;5.77;3.97;;;;;;;24.54;58.22;100168.88;4992246;28;20581;-71
2022/08/25 07:03:18;;;;;;;10.00;4.27;;;;;;;24.67;57.77;100172.94;4992304;28;20176;-68
2022/08/25 07:05:53;;;;;;;7.47;4.20;;;;;;;24.61;58.26;100173.81;4990799;28;20567;-67
2022/08/25 07:08:19;;;;;;;12.70;4.13;;;;;;;24.41;59.18;100162.00;4999918;28;20180;-67
2022/08/25 07:10:45;;;;;;;5.23;3.70;;;;;;;24.55;57.53;100166.84;4995587;28;20419;-75
2022/08/25 07:13:10;;;;;;;7.17;4.20;;;;;;;24.38;59.12;100174.38;5000485;28;21049;-72
2022/08/25 07:15:39;;;;;;;7.03;3.40;;;;;;;24.42;59.37;100172.31;5021102;28;20181;-66
2022/08/25 07:18:05;;;;;;;6.60;3.77;;;;;;;24.52;58.71;100179.22;4976527;28;20186;-67
2022/08/25 07:20:32;;;;;;;5.70;4.10;;;;;;;24.49;58.85;100180.09;4976348;28;20467;-71
2022/08/25 07:22:57;;;;;;;6.93;3.97;;;;;;;24.53;58.80;100172.22;4991128;28;20284;-68
2022/08/25 07:25:23;;;;;;;5.30;4.00;;;;;;;24.54;58.53;100170.97;5003868;28;20455;-69
2022/08/25 07:27:48;;;;;;;10.57;3.53;;;;;;;24.54;58.90;100165.19;4997884;28;20184;-71
2022/08/25 07:30:15;;;;;;;11.43;4.70;;;;;;;24.54;59.06;100168.88;5019264;28;20673;-68
2022/08/25 07:32:40;;;;;;;7.17;4.43;;;;;;;24.31;59.39;100165.78;4995855;28;20260;-67
2022/08/25 07:35:14;;;;;;;7.37;4.10;;;;;;;24.40;59.46;100166.16;4997785;28;20454;-67
2022/08/25 07:37:58;;;;;;;5.80;4.20;;;;;;;24.46;59.00;100158.66;5021974;28;20183;-71
2022/08/25 07:40:28;;;;;;;7.83;3.47;;;;;;;24.57;60.04;100173.00;4998705;28;20562;-69
2022/08/25 07:42:55;;;;;;;11.73;4.33;;;;;;;24.72;61.82;100174.53;4976953;28;20994;-71
2022/08/25 07:45:28;;;;;;;5.80;4.20;;;;;;;24.69;59.79;100182.00;4985796;28;20429;-74
2022/08/25 07:47:55;;;;;;;9.70;4.30;;;;;;;24.69;59.07;100176.22;4976097;28;20460;-70
2022/08/25 07:50:21;;;;;;;6.60;4.40;;;;;;;24.70;58.82;100179.94;4974913;28;20421;-70
2022/08/25 07:52:46;;;;;;;11.13;4.80;;;;;;;24.76;58.77;100181.13;4974480;28;20472;-71
2022/08/25 07:55:12;;;;;;;7.13;4.60;;;;;;;24.76;58.62;100181.94;4973982;28;20439;-69
2022/08/25 07:57:40;;;;;;;6.70;4.40;;;;;;;24.80;58.26;100188.50;4987541;28;20264;-71
2022/08/25 08:00:08;;;;;;;7.80;4.17;;;;;;;24.80;58.54;100181.91;4989783;28;20170;-71
2022/08/25 08:02:33;;;;;;;8.13;4.67;;;;;;;24.80;58.56;100181.91;4973856;28;20464;-71
2022/08/25 08:04:59;;;;;;;8.83;4.90;;;;;;;24.82;58.23;100174.47;4992481;28;20429;-71
2022/08/25 08:07:25;;;;;;;7.67;4.50;;;;;;;24.83;58.13;100178.97;4991266;28;20920;-70
2022/08/25 08:09:51;;;;;;;12.83;4.40;;;;;;;24.86;57.77;100181.03;4976082;28;20178;-70
2022/08/25 08:12:16;;;;;;;7.77;4.40;;;;;;;24.88;58.08;100183.50;4991644;28;20169;-71
2022/08/25 08:14:42;;;;;;;7.50;4.30;;;;;;;24.90;57.86;100178.94;4979409;28;20215;-71
2022/08/25 08:17:07;;;;;;;5.50;4.23;;;;;;;24.91;57.59;100176.84;4993941;28;20177;-68
2022/08/25 08:19:33;;;;;;;6.63;4.30;;;;;;;24.92;57.71;100184.25;5012428;28;20201;-71
2022/08/25 08:21:59;;;;;;;6.47;4.53;;;;;;;24.94;57.46;100185.47;4993808;28;20574;-71
2022/08/25 08:24:24;;;;;;;7.13;4.60;;;;;;;24.95;57.67;100186.31;4993622;28;20663;-68
2022/08/25 08:26:50;;;;;;;7.90;4.80;;;;;;;24.98;57.91;100180.47;4979246;28;20170;-68
2022/08/25 08:29:15;;;;;;;4.90;3.73;;;;;;;25.00;57.63;100180.91;5010932;28;20173;-71
2022/08/25 08:31:41;;;;;;;9.80;4.80;;;;;;;24.99;57.86;100175.53;4997605;28;20177;-68
2022/08/25 08:34:06;;;;;;;5.03;4.17;;;;;;;24.99;57.80;100178.44;4994685;28;20185;-68
2022/08/25 08:36:32;;;;;;;7.63;4.40;;;;;;;25.04;57.62;100170.09;4994891;28;20246;-69
2022/08/25 08:38:57;;;;;;;7.87;4.30;;;;;;;25.05;57.30;100165.16;5023003;28;20176;-69
2022/08/25 08:44:25;;;;;;;7.87;4.43;;;;;;;25.10;57.52;100159.75;5028913;28;20227;-68
2022/08/25 08:47:25;;;;;;;9.47;4.90;;;;;;;25.11;57.79;100167.16;4994554;28;20420;-69
2022/08/25 08:50:05;;;;;;;6.60;5.10;;;;;;;25.14;57.85;100157.59;5010846;28;20887;-71
2022/08/25 08:52:47;;;;;;;7.20;4.77;;;;;;;25.14;58.00;100174.94;5011484;28;20475;-68
2022/08/25 08:55:39;;;;;;;13.47;5.20;;;;;;;25.15;57.60;100161.31;5010814;28;20420;-70
2022/08/25 08:58:29;;;;;;;11.83;5.00;;;;;;;25.19;57.54;100162.13;4995025;28;20420;-69
2022/08/25 09:00:57;;;;;;;6.30;4.90;;;;;;;25.19;57.43;100153.44;4994078;28;20439;-70
2022/08/25 09:03:34;;;;;;;5.93;4.33;;;;;;;25.21;58.09;100157.53;4993483;28;20424;-71
2022/08/25 09:06:02;;;;;;;6.50;3.90;;;;;;;25.20;57.46;100155.91;4994017;28;20408;-69
2022/08/25 09:08:28;;;;;;;15.23;4.53;;;;;;;25.24;56.89;100159.56;4994064;28;20547;-68
2022/08/25 09:10:59;;;;;;;5.23;3.40;;;;;;;25.26;56.86;100148.44;5009746;28;20420;-70
2022/08/25 09:13:58;;;;;;;7.20;4.20;;;;;;;25.26;56.64;100148.44;4993387;28;20184;-69
2022/08/25 09:19:27;;;;;;;5.57;3.97;;;;;;;25.33;56.59;100157.00;4990122;28;20847;-68
2022/08/25 09:22:25;;;;;;;5.90;4.10;;;;;;;25.33;56.56;100145.44;4990826;28;20562;-69
2022/08/25 09:25:13;;;;;;;10.73;4.17;;;;;;;25.35;56.22;100153.69;4982276;28;20433;-71
2022/08/25 09:28:08;;;;;;;6.87;3.90;;;;;;;25.38;56.00;100147.06;4992750;28;20401;-72
2022/08/25 09:30:53;;;;;;;7.60;4.60;;;;;;;25.33;55.88;100148.34;4966172;28;20436;-68
2022/08/25 09:33:21;;;;;;;11.07;4.20;;;;;;;25.40;55.96;100135.88;5011699;28;20477;-71
2022/08/25 09:35:46;;;;;;;6.40;4.57;;;;;;;25.41;55.94;100135.47;4994821;28;20534;-70
2022/08/25 09:38:12;;;;;;;7.63;4.10;;;;;;;25.45;55.31;100123.84;4995561;28;20789;-69
2022/08/25 09:40:39;;;;;;;5.60;4.33;;;;;;;25.45;55.42;100123.84;5011237;28;20274;-69
2022/08/25 09:43:19;;;;;;;9.13;3.90;;;;;;;25.46;55.03;100120.53;4995480;28;20237;-71
2022/08/25 09:45:47;;;;;;;6.33;3.83;;;;;;;25.44;55.69;100117.22;4998684;28;20515;-70
2022/08/25 09:48:23;;;;;;;5.60;4.10;;;;;;;25.54;54.93;100110.50;4992189;28;20416;-70
2022/08/25 09:50:50;;;;;;;7.47;4.10;;;;;;;25.57;55.03;100115.41;4992007;28;20840;-72
2022/08/25 09:53:15;;;;;;;7.73;4.10;;;;;;;25.54;54.59;100109.69;4991927;28;20471;-68
2022/08/25 09:55:42;;;;;;;4.77;3.93;;;;;;;25.59;54.72;100110.00;5009133;28;20435;-69
2022/08/25 09:58:26;;;;;;;7.93;4.30;;;;;;;25.63;54.64;100112.84;4992756;28;20169;-72
2022/08/25 10:01:11;;;;;;;5.67;4.73;;;;;;;25.65;53.75;100102.47;5012635;28;20415;-72
2022/08/25 10:03:37;;;;;;;5.53;4.00;;;;;;;25.76;53.70;100105.22;4992634;28;20915;-69
2022/08/25 10:06:09;;;;;;;6.33;4.00;;;;;;;25.71;53.19;100103.66;4992322;28;20440;-71
2022/08/25 10:08:40;;;;;;;6.80;4.50;;;;;;;25.67;53.69;100102.06;4990858;28;20267;-71
2022/08/25 10:11:07;;;;;;;6.90;4.20;;;;;;;25.73;53.99;100098.25;4990235;28;20971;-70
2022/08/25 10:13:36;;;;;;;6.03;4.40;;;;;;;25.67;53.70;100093.38;4991209;28;20481;-71
2022/08/25 10:16:31;;;;;;;5.60;4.27;;;;;;;25.59;54.11;100092.66;5008507;28;20431;-68
2022/08/25 10:19:01;;;;;;;7.13;4.87;;;;;;;25.63;53.83;100095.50;4987635;28;20432;-69
2022/08/25 10:21:27;;;;;;;8.80;5.10;;;;;;;25.63;54.07;100087.66;4992229;28;20459;-68
2022/08/25 10:23:54;;;;;;;8.80;4.90;;;;;;;25.71;53.59;100085.47;4992691;28;20425;-68
2022/08/25 10:26:54;;;;;;;7.17;4.87;;;;;;;25.70;54.18;100083.84;4973987;28;20182;-68
2022/08/25 10:29:32;;;;;;;5.90;4.67;;;;;;;25.76;53.73;100079.19;4973879;28;20427;-68
2022/08/25 10:32:15;;;;;;;10.93;5.03;;;;;;;25.79;53.59;100079.16;4990830;28;20463;-69
2022/08/25 10:34:47;;;;;;;10.43;4.90;;;;;;;25.77;53.79;100075.88;4974832;28;20413;-69
2022/08/25 10:37:33;;;;;;;7.27;4.80;;;;;;;25.77;53.94;100066.38;4958213;28;20424;-68
2022/08/25 10:40:21;;;;;;;6.57;4.30;;;;;;;25.82;53.76;100066.72;5007379;28;20568;-68
2022/08/25 10:43:24;;;;;;;7.73;5.03;;;;;;;25.81;53.71;100070.88;4995064;28;21004;-71
2022/08/25 10:46:01;;;;;;;6.70;4.47;;;;;;;25.83;53.57;100050.16;4999118;28;20436;-69
2022/08/25 10:48:39;;;;;;;6.53;4.40;;;;;;;25.86;53.63;100061.69;4991006;28;20420;-68
2022/08/25 10:51:26;;;;;;;8.70;4.90;;;;;;;25.91;52.66;100046.78;5006869;28;20852;-69
2022/08/25 10:54:36;;;;;;;6.27;4.60;;;;;;;25.93;52.34;100050.03;5007935;28;20467;-72
2022/08/25 10:57:19;;;;;;;5.60;4.33;;;;;;;25.93;52.47;100034.75;5005847;28;20420;-69
2022/08/25 11:00:10;;;;;;;7.37;5.43;;;;;;;25.95;52.74;100040.94;4992505;28;21458;-71
2022/08/25 11:03:09;;;;;;;8.30;5.07;;;;;;;25.93;53.10;100035.56;4993274;28;20444;-69
2022/08/25 11:05:39;;;;;;;4.90;4.10;;;;;;;25.95;52.57;100035.94;5008481;28;20502;-69
2022/08/25 11:08:09;;;;;;;7.43;4.40;;;;;;;25.99;52.03;100030.13;5010249;28;20499;-69
2022/08/25 11:10:50;;;;;;;6.47;3.90;;;;;;;26.04;52.52;100023.84;5008311;28;20523;-71
2022/08/25 11:13:23;;;;;;;6.63;4.50;;;;;;;26.07;52.17;100029.56;4992202;28;20415;-69
2022/08/25 11:15:55;;;;;;;8.00;4.53;;;;;;;26.20;51.20;100027.66;4990313;28;20432;-70
2022/08/25 11:18:21;;;;;;;7.33;4.83;;;;;;;26.10;51.67;100025.75;4973642;28;20412;-70
2022/08/25 11:21:11;;;;;;;8.40;4.47;;;;;;;26.11;51.57;100027.44;4989785;28;20427;-71
2022/08/25 11:23:57;;;;;;;7.03;4.23;;;;;;;26.09;51.56;100014.66;5008387;28;20484;-71
2022/08/25 11:26:32;;;;;;;9.83;4.40;;;;;;;26.24;51.30;100013.16;5009396;28;20427;-70
2022/08/25 11:29:18;;;;;;;7.77;4.00;;;;;;;26.15;51.40;100015.78;4990754;28;20418;-69
2022/08/25 11:31:45;;;;;;;5.70;4.30;;;;;;;26.09;52.06;100001.00;5027521;28;20419;-69
2022/08/25 11:34:13;;;;;;;8.60;4.37;;;;;;;26.17;51.58;99999.63;4995757;28;20526;-69
2022/08/25 11:36:42;;;;;;;6.53;4.17;;;;;;;26.21;51.45;99999.53;5011631;28;20494;-69
2022/08/25 11:39:23;;;;;;;5.50;4.20;;;;;;;26.30;51.37;99988.22;5027753;28;20454;-69
2022/08/25 11:42:07;;;;;;;7.70;4.43;;;;;;;26.30;51.18;99994.81;4996747;28;20462;-71
2022/08/25 11:45:07;;;;;;;11.00;5.10;;;;;;;26.28;50.55;99985.75;5007863;28;20439;-69
2022/08/25 11:47:54;;;;;;;5.93;4.33;;;;;;;26.18;51.18;99989.66;4978246;28;21025;-72